This is the latest recevied weather packets stored in our database for station/object IU3IOK-3. If no packets are shown the sender has not sent any weather packets the latest 10 day(s).
| Time | Temp. | Humidity | Pressure | Rain* | Wind** | Luminosity | Snow |
|---|---|---|---|---|---|---|---|
| 1777677102 | 15° C | 43% | 1025.8 hPa | - | - | - | - |
| 1777676202 | 15° C | 42% | 1025.8 hPa | - | - | - | - |
| 1777675302 | 15° C | 41% | 1025.8 hPa | - | - | - | - |
| 1777674402 | 15.56° C | 41% | 1025.7 hPa | - | - | - | - |
| 1777673502 | 16.11° C | 40% | 1025.7 hPa | - | - | - | - |
| 1777672602 | 16.11° C | 39% | 1025.5 hPa | - | - | - | - |
| 1777671702 | 16.11° C | 39% | 1025.3 hPa | - | - | - | - |
| 1777670802 | 16.11° C | 38% | 1025.2 hPa | - | - | - | - |
| 1777669902 | 16.67° C | 38% | 1025.1 hPa | - | - | - | - |
| 1777669002 | 16.67° C | 37% | 1025 hPa | - | - | - | - |
| 1777668102 | 16.67° C | 36% | 1025 hPa | - | - | - | - |
| 1777667202 | 17.22° C | 36% | 1025 hPa | - | - | - | - |
| 1777666302 | 17.22° C | 36% | 1025 hPa | - | - | - | - |
| 1777665402 | 17.78° C | 35% | 1024.9 hPa | - | - | - | - |
| 1777664502 | 17.78° C | 35% | 1024.8 hPa | - | - | - | - |
| 1777663602 | 17.78° C | 34% | 1024.6 hPa | - | - | - | - |
| 1777662702 | 18.33° C | 34% | 1024.4 hPa | - | - | - | - |
| 1777661802 | 21.11° C | 26% | 1023.9 hPa | - | - | - | - |
| 1777660902 | 21.11° C | 26% | 1023.9 hPa | - | - | - | - |
| 1777660002 | 21.11° C | 26% | 1023.9 hPa | - | - | - | - |
| 1777659102 | 21.11° C | 26% | 1023.9 hPa | - | - | - | - |
| 1777658202 | 21.11° C | 26% | 1023.9 hPa | - | - | - | - |
| 1777657302 | 21.11° C | 26% | 1023.9 hPa | - | - | - | - |
| 1777656402 | 21.11° C | 26% | 1023.9 hPa | - | - | - | - |
| 1777655502 | 21.11° C | 26% | 1023.9 hPa | - | - | - | - |
* Rain since midnight (hover to see other rain measurements)
** Current wind speed in m/s (hover to see current wind gust speed)